createdAt,value
2023-01-03T00:03:21.038Z,3.40
2023-01-03T00:06:48.835Z,3.30
2023-01-03T00:10:16.522Z,3.30
2023-01-03T00:13:43.011Z,3.10
2023-01-03T00:17:14.891Z,2.90
2023-01-03T00:20:43.501Z,3.10
2023-01-03T00:24:10.135Z,2.80
2023-01-03T00:27:36.892Z,3.28
2023-01-03T00:31:06.251Z,2.88
2023-01-03T00:34:32.539Z,3.17
2023-01-03T00:38:00.393Z,3.10
2023-01-03T00:41:26.623Z,3.20
2023-01-03T00:44:53.129Z,3.10
2023-01-03T00:48:19.403Z,3.10
2023-01-03T00:51:45.601Z,3.30
2023-01-03T00:55:14.021Z,3.30
2023-01-03T00:58:40.267Z,3.28
2023-01-03T01:02:07.197Z,3.30
2023-01-03T01:05:33.530Z,3.10
2023-01-03T01:09:00.432Z,3.22
2023-01-03T01:12:28.476Z,2.92
2023-01-03T01:15:55.031Z,3.30
2023-01-03T01:19:22.243Z,3.13
2023-01-03T01:22:48.739Z,3.00
2023-01-03T01:26:15.650Z,3.40
2023-01-03T01:29:43.239Z,3.15
2023-01-03T01:33:09.569Z,3.00
2023-01-03T01:36:37.475Z,3.10
2023-01-03T01:40:05.931Z,3.00
2023-01-03T01:43:49.526Z,3.17
2023-01-03T01:47:25.187Z,3.40
2023-01-03T01:50:55.994Z,3.20
2023-01-03T01:54:23.499Z,3.40
2023-01-03T01:57:51.156Z,3.25
2023-01-03T02:01:17.856Z,3.20
2023-01-03T02:04:51.585Z,3.10
2023-01-03T02:08:18.153Z,3.20
2023-01-03T02:12:13.207Z,3.22
2023-01-03T02:15:49.506Z,3.30
2023-01-03T02:19:46.557Z,3.30
2023-01-03T02:23:35.003Z,2.83
2023-01-03T02:27:27.313Z,3.20
2023-01-03T02:31:15.775Z,3.33
2023-01-03T02:34:48.416Z,3.22
2023-01-03T02:38:21.091Z,3.30
2023-01-03T02:41:52.309Z,3.63
2023-01-03T02:45:22.380Z,3.50
2023-01-03T02:48:55.424Z,3.22
2023-01-03T02:52:24.187Z,2.97
2023-01-03T02:55:53.100Z,3.30
2023-01-03T02:59:21.287Z,3.15
2023-01-03T03:02:51.904Z,2.92
2023-01-03T03:06:26.550Z,3.15
2023-01-03T03:10:09.939Z,3.30
2023-01-03T03:13:40.519Z,3.30
2023-01-03T03:17:10.337Z,3.13
2023-01-03T03:20:56.370Z,3.10
2023-01-03T03:24:44.655Z,3.50
2023-01-03T03:28:32.505Z,3.20
2023-01-03T03:32:00.029Z,3.30
2023-01-03T03:35:27.928Z,3.30
2023-01-03T03:38:57.930Z,3.30
2023-01-03T03:42:47.266Z,3.15
2023-01-03T03:46:27.745Z,3.40
2023-01-03T03:49:58.812Z,3.40
2023-01-03T03:53:30.192Z,3.50
2023-01-03T03:57:00.634Z,3.30
2023-01-03T04:00:27.992Z,3.50
2023-01-03T04:03:55.200Z,3.33
2023-01-03T04:07:23.882Z,3.30
2023-01-03T04:10:51.498Z,3.30
2023-01-03T04:14:17.817Z,3.22
2023-01-03T04:17:44.142Z,3.03
2023-01-03T04:21:14.321Z,3.22
2023-01-03T04:24:45.048Z,3.33
2023-01-03T04:28:12.676Z,3.10
2023-01-03T04:31:38.939Z,3.20
2023-01-03T04:35:06.452Z,3.35
2023-01-03T04:38:32.981Z,3.25
2023-01-03T04:42:23.250Z,3.33
2023-01-03T04:45:49.978Z,3.10
2023-01-03T04:49:16.641Z,3.22
2023-01-03T04:52:42.908Z,3.13
2023-01-03T04:56:09.420Z,2.95
2023-01-03T04:59:35.723Z,3.30
2023-01-03T05:03:03.613Z,3.40
2023-01-03T05:06:30.093Z,3.30
2023-01-03T05:09:56.542Z,3.40
2023-01-03T05:13:22.844Z,3.05
2023-01-03T05:16:49.160Z,2.80
2023-01-03T05:20:30.835Z,3.20
2023-01-03T05:24:14.582Z,3.30
2023-01-03T05:27:41.261Z,3.03
2023-01-03T05:31:07.883Z,3.20
2023-01-03T05:34:35.429Z,3.22
2023-01-03T05:38:01.655Z,3.08
2023-01-03T05:41:48.030Z,3.28
2023-01-03T05:45:14.315Z,3.10
2023-01-03T05:48:40.598Z,3.30
2023-01-03T05:52:08.178Z,3.00
2023-01-03T05:55:34.452Z,3.00
2023-01-03T05:59:00.726Z,3.30
2023-01-03T06:02:27.180Z,3.05
2023-01-03T06:05:53.426Z,3.10
2023-01-03T06:09:20.972Z,3.22
2023-01-03T06:12:47.301Z,3.20
2023-01-03T06:16:32.343Z,3.20
2023-01-03T06:19:59.156Z,3.13
2023-01-03T06:23:28.447Z,2.90
2023-01-03T06:26:54.675Z,3.10
2023-01-03T06:30:21.063Z,3.30
2023-01-03T06:33:47.427Z,3.25
2023-01-03T06:37:14.490Z,2.97
2023-01-03T06:40:45.903Z,3.30
2023-01-03T06:44:12.295Z,3.30
2023-01-03T06:47:56.142Z,3.30
2023-01-03T06:51:39.988Z,3.20
2023-01-03T06:55:09.024Z,3.22
2023-01-03T06:58:35.471Z,3.20
2023-01-03T07:02:02.943Z,3.42
2023-01-03T07:05:29.404Z,3.00
2023-01-03T07:08:55.618Z,3.00
2023-01-03T07:12:40.613Z,3.42
2023-01-03T07:16:07.601Z,3.30
2023-01-03T07:19:33.971Z,3.33
2023-01-03T07:23:00.183Z,3.40
2023-01-03T07:26:27.830Z,3.20
2023-01-03T07:29:54.047Z,2.97
2023-01-03T07:33:20.308Z,3.20
2023-01-03T07:36:46.506Z,3.10
2023-01-03T07:40:13.813Z,3.40
2023-01-03T07:43:42.238Z,3.40
2023-01-03T07:47:09.524Z,3.30
2023-01-03T07:50:36.077Z,3.20
2023-01-03T07:54:03.002Z,3.20
2023-01-03T07:57:29.313Z,3.08
2023-01-03T08:00:56.906Z,3.50
2023-01-03T08:04:23.151Z,3.40
2023-01-03T08:07:49.748Z,3.10
2023-01-03T08:11:33.595Z,3.58
2023-01-03T08:15:01.154Z,3.25
2023-01-03T08:18:27.928Z,3.40
2023-01-03T08:21:54.346Z,3.60
2023-01-03T08:25:20.576Z,3.17
2023-01-03T08:28:46.982Z,3.13
2023-01-03T08:32:16.163Z,3.17
2023-01-03T08:35:44.238Z,3.30
2023-01-03T08:39:12.135Z,3.22
2023-01-03T08:42:41.227Z,3.05
2023-01-03T08:46:11.385Z,3.20
2023-01-03T08:49:39.342Z,3.13
2023-01-03T08:53:06.221Z,3.25
2023-01-03T08:56:32.487Z,3.20
2023-01-03T08:59:58.727Z,3.00
2023-01-03T09:03:25.078Z,3.15
2023-01-03T09:06:52.767Z,3.20
2023-01-03T09:10:20.104Z,3.40
2023-01-03T09:13:46.340Z,3.50
2023-01-03T09:17:13.245Z,3.20
2023-01-03T09:20:39.432Z,3.35
2023-01-03T09:24:07.470Z,3.30
2023-01-03T09:27:33.706Z,3.30
2023-01-03T09:31:00.149Z,3.40
2023-01-03T09:34:26.497Z,3.30
2023-01-03T09:37:52.731Z,3.10
2023-01-03T09:41:23.800Z,3.00
2023-01-03T09:44:52.451Z,3.40
2023-01-03T09:48:21.403Z,3.40
2023-01-03T09:52:05.039Z,3.30
2023-01-03T09:55:54.878Z,3.35
2023-01-03T09:59:38.618Z,3.40
2023-01-03T10:03:42.136Z,3.60
2023-01-03T10:07:24.081Z,4.70
2023-01-03T10:10:57.374Z,3.22
2023-01-03T10:14:35.201Z,3.17
2023-01-03T10:18:14.049Z,3.15
2023-01-03T10:21:45.810Z,3.05
2023-01-03T10:25:19.461Z,3.17
2023-01-03T10:28:47.728Z,3.10
2023-01-03T10:32:24.500Z,3.25
2023-01-03T10:36:01.880Z,3.17
2023-01-03T10:39:30.161Z,3.03
2023-01-03T10:42:59.032Z,2.92
2023-01-03T10:46:27.830Z,3.13
2023-01-03T10:49:59.374Z,3.45
2023-01-03T10:53:29.817Z,3.35
2023-01-03T10:56:57.469Z,3.83
2023-01-03T11:00:27.828Z,3.10
2023-01-03T11:04:10.840Z,3.30
2023-01-03T11:07:37.362Z,4.07
2023-01-03T11:11:03.684Z,3.90
2023-01-03T11:14:34.277Z,4.20
2023-01-03T11:18:04.924Z,4.13
2023-01-03T11:21:38.146Z,4.00
2023-01-03T11:25:16.158Z,4.28
2023-01-03T11:28:59.846Z,3.30
2023-01-03T11:32:36.361Z,4.00
2023-01-03T11:36:18.452Z,4.00
2023-01-03T11:39:59.257Z,4.13
2023-01-03T11:43:36.594Z,4.47
2023-01-03T11:47:16.524Z,4.53
2023-01-03T11:50:50.564Z,4.05
2023-01-03T11:54:30.979Z,4.13
2023-01-03T11:58:05.780Z,4.07
2023-01-03T12:01:39.835Z,4.13
2023-01-03T12:05:19.507Z,4.50
2023-01-03T12:08:54.742Z,3.45
2023-01-03T12:12:42.299Z,4.53
2023-01-03T12:16:15.807Z,4.75
2023-01-03T12:19:50.583Z,4.40
2023-01-03T12:23:21.768Z,3.83
2023-01-03T12:26:52.440Z,4.22
2023-01-03T12:30:25.453Z,4.03
2023-01-03T12:37:27.804Z,4.28
2023-01-03T12:40:55.921Z,3.83
2023-01-03T12:44:26.564Z,4.70
2023-01-03T12:47:55.155Z,4.32
2023-01-03T12:51:26.869Z,4.70
2023-01-03T12:54:57.568Z,3.33
2023-01-03T12:58:39.590Z,3.58
2023-01-03T13:02:12.942Z,3.87
2023-01-03T13:05:41.833Z,3.88
2023-01-03T13:09:17.273Z,4.18
2023-01-03T13:12:45.022Z,3.80
2023-01-03T13:16:46.062Z,3.80
2023-01-03T13:20:34.792Z,4.00
2023-01-03T13:24:02.912Z,3.80
2023-01-03T13:27:36.014Z,3.55
2023-01-03T13:35:16.432Z,3.33
2023-01-03T13:38:43.589Z,3.22
2023-01-03T13:42:28.932Z,3.40
2023-01-03T13:46:22.717Z,3.17
2023-01-03T13:49:54.337Z,3.35
2023-01-03T13:53:37.823Z,2.88
2023-01-03T14:00:41.173Z,3.30
2023-01-03T14:04:48.620Z,3.10
2023-01-03T14:08:35.967Z,3.13
2023-01-03T14:12:20.668Z,3.42
2023-01-03T14:15:53.561Z,3.08
2023-01-03T14:19:22.051Z,2.85
2023-01-03T14:22:51.288Z,3.38
2023-01-03T14:26:33.660Z,3.30
2023-01-03T14:30:01.223Z,3.50
2023-01-03T14:33:31.340Z,3.40
2023-01-03T14:37:03.063Z,3.50
2023-01-03T14:40:30.311Z,3.25
2023-01-03T14:44:00.279Z,3.20
2023-01-03T14:47:30.401Z,3.03
2023-01-03T14:50:56.668Z,3.40
2023-01-03T14:54:23.056Z,3.30
2023-01-03T14:57:50.319Z,3.30
2023-01-03T15:01:18.171Z,3.13
2023-01-03T15:04:50.156Z,3.53
2023-01-03T15:08:42.413Z,3.30
2023-01-03T15:12:08.756Z,3.50
2023-01-03T15:15:39.176Z,3.38
2023-01-03T15:19:09.627Z,3.50
2023-01-03T15:22:36.946Z,3.50
2023-01-03T15:26:04.921Z,3.08
2023-01-03T15:29:44.647Z,3.20
2023-01-03T15:33:21.425Z,3.30
2023-01-03T15:36:50.552Z,3.40
2023-01-03T15:40:22.336Z,3.50
2023-01-03T15:43:48.657Z,3.30
2023-01-03T15:47:19.533Z,3.30
2023-01-03T15:50:48.127Z,3.38
2023-01-03T15:54:21.086Z,3.30
2023-01-03T15:57:50.929Z,3.55
2023-01-03T16:01:20.643Z,3.30
2023-01-03T16:04:48.351Z,3.53
2023-01-03T16:08:23.357Z,3.40
2023-01-03T16:11:49.858Z,3.40
2023-01-03T16:15:20.340Z,3.40
2023-01-03T16:18:49.004Z,3.20
2023-01-03T16:26:03.680Z,3.30
2023-01-03T16:29:57.624Z,3.50
2023-01-03T16:33:26.998Z,3.40
2023-01-03T16:36:54.084Z,3.60
2023-01-03T16:40:22.691Z,3.50
2023-01-03T16:43:50.675Z,3.08
2023-01-03T16:47:22.043Z,3.33
2023-01-03T16:50:53.948Z,3.40
2023-01-03T16:54:26.730Z,3.22
2023-01-03T16:57:55.382Z,3.50
2023-01-03T17:01:22.738Z,3.40
2023-01-03T17:04:49.490Z,3.40
2023-01-03T17:08:20.440Z,3.20
2023-01-03T17:11:49.808Z,3.30
2023-01-03T17:15:19.125Z,3.22
2023-01-03T17:18:45.470Z,3.50
2023-01-03T17:22:15.359Z,3.05
2023-01-03T17:25:42.585Z,3.40
2023-01-03T17:29:11.443Z,3.40
2023-01-03T17:32:39.243Z,3.30
2023-01-03T17:36:07.265Z,3.20
2023-01-03T17:39:34.136Z,3.40
2023-01-03T17:43:00.762Z,3.40
2023-01-03T17:46:47.027Z,3.20
2023-01-03T17:50:17.467Z,3.40
2023-01-03T17:53:44.057Z,3.10
2023-01-03T17:57:13.355Z,3.42
2023-01-03T18:00:39.610Z,3.50
2023-01-03T18:04:06.182Z,3.30
2023-01-03T18:07:35.004Z,3.33
2023-01-03T18:11:01.241Z,3.30
2023-01-03T18:14:30.204Z,3.10
2023-01-03T18:17:56.460Z,3.13
2023-01-03T18:21:24.578Z,3.50
2023-01-03T18:24:53.911Z,3.20
2023-01-03T18:28:22.169Z,3.40
2023-01-03T18:31:48.711Z,3.58
2023-01-03T18:35:24.244Z,3.30
2023-01-03T18:38:57.259Z,3.50
2023-01-03T18:42:43.477Z,3.40
2023-01-03T18:46:11.966Z,3.30
2023-01-03T18:49:39.712Z,3.05
2023-01-03T18:53:07.393Z,3.58
2023-01-03T18:56:36.357Z,3.45
2023-01-03T19:00:06.353Z,3.50
2023-01-03T19:03:33.361Z,3.20
2023-01-03T19:07:01.234Z,3.25
2023-01-03T19:10:27.902Z,3.50
2023-01-03T19:14:00.269Z,3.40
2023-01-03T19:17:27.643Z,3.40
2023-01-03T19:20:54.864Z,3.40
2023-01-03T19:24:24.406Z,3.40
2023-01-03T19:27:53.672Z,3.50
2023-01-03T19:31:24.860Z,3.17
2023-01-03T19:34:51.404Z,3.60
2023-01-03T19:38:18.622Z,3.55
2023-01-03T19:41:59.477Z,3.30
2023-01-03T19:45:32.208Z,3.60
2023-01-03T19:48:59.821Z,3.60
2023-01-03T19:52:29.302Z,3.70
2023-01-03T19:55:55.500Z,3.20
2023-01-03T19:59:25.367Z,3.50
2023-01-03T20:02:53.627Z,3.22
2023-01-03T20:06:22.351Z,3.20
2023-01-03T20:09:48.538Z,3.40
2023-01-03T20:13:19.572Z,3.42
2023-01-03T20:16:47.002Z,3.60
2023-01-03T20:20:18.332Z,3.20
2023-01-03T20:23:45.821Z,3.50
2023-01-03T20:27:17.987Z,3.50
2023-01-03T20:30:44.208Z,3.20
2023-01-03T20:34:10.880Z,3.20
2023-01-03T20:37:39.922Z,3.55
2023-01-03T20:41:14.184Z,3.40
2023-01-03T20:44:40.523Z,3.40
2023-01-03T20:48:07.470Z,3.40
2023-01-03T20:51:35.239Z,3.20
2023-01-03T20:55:05.156Z,3.60
2023-01-03T20:58:34.173Z,3.30
2023-01-03T21:02:12.420Z,3.53
2023-01-03T21:05:39.798Z,3.47
2023-01-03T21:09:08.931Z,3.50
2023-01-03T21:12:37.495Z,3.40
2023-01-03T21:16:04.766Z,3.50
2023-01-03T21:19:31.001Z,3.47
2023-01-03T21:22:57.457Z,3.30
2023-01-03T21:26:26.147Z,3.50
2023-01-03T21:29:52.751Z,3.25
2023-01-03T21:33:19.693Z,3.45
2023-01-03T21:36:45.985Z,3.50
2023-01-03T21:40:17.325Z,3.30
2023-01-03T21:43:45.251Z,3.42
2023-01-03T21:47:14.568Z,3.60
2023-01-03T21:50:41.821Z,3.47
2023-01-03T21:54:11.760Z,3.35
2023-01-03T21:57:38.608Z,3.42
2023-01-03T22:01:10.704Z,3.20
2023-01-03T22:04:36.470Z,3.22
2023-01-03T22:08:02.884Z,3.40
2023-01-03T22:11:29.432Z,3.60
2023-01-03T22:14:56.591Z,3.42
2023-01-03T22:18:24.156Z,3.60
2023-01-03T22:21:50.350Z,3.40
2023-01-03T22:25:17.993Z,3.28
2023-01-03T22:28:45.174Z,3.53
2023-01-03T22:32:12.215Z,3.10
2023-01-03T22:35:39.842Z,3.33
2023-01-03T22:39:06.033Z,3.40
2023-01-03T22:42:32.267Z,3.28
2023-01-03T22:45:58.482Z,3.50
2023-01-03T22:49:24.727Z,3.50
2023-01-03T22:52:52.329Z,3.40
2023-01-03T22:56:18.693Z,3.38
2023-01-03T22:59:45.287Z,3.47
2023-01-03T23:03:11.449Z,3.40
2023-01-03T23:06:37.801Z,3.50
2023-01-03T23:10:07.037Z,3.40
2023-01-03T23:13:34.904Z,3.40
2023-01-03T23:17:23.143Z,3.40
2023-01-03T23:20:49.588Z,3.40
2023-01-03T23:24:17.690Z,3.38
2023-01-03T23:27:44.379Z,3.25
2023-01-03T23:31:11.254Z,3.47
2023-01-03T23:34:37.567Z,3.22
2023-01-03T23:38:04.325Z,3.22
2023-01-03T23:41:31.882Z,3.50
2023-01-03T23:44:58.074Z,3.20
2023-01-03T23:48:24.276Z,3.47
2023-01-03T23:51:51.003Z,3.40
2023-01-03T23:55:17.377Z,3.30
2023-01-03T23:58:45.200Z,3.20
